Date,TemperatureHighF,TemperatureAvgF,TemperatureLowF,DewpointHighF,DewpointAvgF,DewpointLowF,HumidityHigh,HumidityAvg,HumidityLow,PressureMaxIn,PressureMinIn,WindSpeedMaxMPH,WindSpeedAvgMPH,GustSpeedMaxMPH,PrecipitationSumIn
2012-12-1,53,49,46,48,44,39,96,82,64,29.56,29.24,14,6,33,1.31
2012-12-2,47,46,45,44,43,41,95,90,85,29.70,29.12,13,6,30,0.58
2012-12-3,48,47,45,46,44,42,95,91,83,29.94,29.60,12,5,24,0.47
2012-12-4,51,49,45,50,45,42,97,88,76,29.69,29.47,14,6,27,0.48
2012-12-5,47,44,41,39,38,36,86,80,71,30.14,30.01,11,6,20,0.08
2012-12-6,45,42,41,42,38,-100,93,88,85,30.12,29.98,12,6,23,0.03
2012-12-7,46,43,40,43,39,34,92,85,74,30.09,29.88,10,4,22,0.01
2012-12-8,43,40,39,37,35,34,91,84,72,30.29,30.08,6,1,13,0.00
2012-12-9,43,40,38,42,38,36,100,93,88,30.32,30.22,3,1,10,0.06
2012-12-10,44,43,40,43,41,39,97,95,92,30.36,30.05,7,1,15,0.03
2012-12-11,46,44,43,42,41,39,94,90,82,30.05,29.49,11,6,22,0.10
2012-12-12,43,42,41,42,41,39,96,95,93,29.97,29.55,3,1,9,0.34
2012-12-13,44,41,39,40,38,36,95,88,73,29.98,29.75,7,1,15,0.18
2012-12-14,43,40,37,39,36,32,96,86,69,29.88,29.72,9,2,19,0.43
2012-12-15,40,37,34,38,34,30,95,88,76,29.86,29.49,13,3,22,0.17
2012-12-16,44,40,38,43,37,34,96,92,86,29.66,28.90,13,6,26,0.70
2012-12-17,45,40,37,42,35,31,93,80,64,29.81,28.89,13,6,28,0.56
2012-12-18,39,37,35,34,33,32,94,86,77,29.91,29.80,14,7,25,0.05
2012-12-19,44,40,34,40,38,33,96,92,81,29.69,29.50,16,5,28,1.09
2012-12-20,45,41,37,43,38,34,96,91,82,29.77,29.44,16,4,22,0.91
2012-12-21,43,38,34,38,35,33,95,90,77,29.76,29.61,4,1,9,0.03
2012-12-22,47,42,40,43,38,36,94,85,69,29.67,29.44,17,4,30,0.10
2012-12-23,45,41,38,40,36,-100,95,85,78,29.74,29.56,9,2,16,0.29
2012-12-24,42,40,39,40,38,37,94,92,85,30.11,29.74,6,2,13,0.21
2012-12-25,42,39,38,37,36,34,95,88,74,30.00,29.59,8,2,17,0.49
2012-12-26,44,42,39,41,38,34,94,88,77,29.84,29.64,11,4,24,0.14
2012-12-27,43,42,40,41,40,37,96,92,84,30.11,29.84,5,2,11,0.21
2012-12-28,45,42,39,43,38,34,93,85,74,30.11,30.05,3,0,7,0.01
2012-12-29,41,39,38,39,35,32,96,86,73,30.17,30.09,3,0,6,0.06
2012-12-30,39,36,32,38,35,31,97,94,88,30.26,30.17,3,1,6,0.01
2012-12-31,39,35,32,37,33,31,97,94,85,30.40,30.19,4,1,11,0.01